createdAt,value
2024-04-10T00:00:32.603Z,0
2024-04-10T00:01:48.000Z,0
2024-04-10T00:03:05.188Z,0
2024-04-10T00:04:21.461Z,0
2024-04-10T00:05:37.781Z,0
2024-04-10T00:06:54.040Z,0
2024-04-10T00:08:10.357Z,0
2024-04-10T00:09:26.000Z,0
2024-04-10T00:10:42.944Z,0
2024-04-10T00:11:59.000Z,0
2024-04-10T00:13:15.533Z,0
2024-04-10T00:14:31.000Z,0
2024-04-10T00:15:47.136Z,0
2024-04-10T00:17:03.444Z,0
2024-04-10T00:18:19.727Z,0
2024-04-10T00:19:36.021Z,0
2024-04-10T00:20:52.321Z,0
2024-04-10T00:22:08.000Z,0
2024-04-10T00:23:24.908Z,0
2024-04-10T00:24:41.000Z,0
2024-04-10T00:25:57.499Z,0
2024-04-10T00:27:13.752Z,0
2024-04-10T00:28:30.071Z,0
2024-04-10T00:29:46.367Z,0
2024-04-10T00:31:02.660Z,0
2024-04-10T00:32:17.000Z,0
2024-04-10T00:33:34.276Z,0
2024-04-10T00:34:50.000Z,0
2024-04-10T00:36:06.845Z,0
2024-04-10T00:37:23.143Z,0
2024-04-10T00:38:39.437Z,0
2024-04-10T00:39:55.000Z,0
2024-04-10T00:41:12.030Z,0
2024-04-10T00:42:28.323Z,0
2024-04-10T00:43:44.618Z,0
2024-04-10T00:45:00.000Z,0
2024-04-10T00:46:17.202Z,0
2024-04-10T00:47:33.464Z,0
2024-04-10T00:48:48.811Z,0
2024-04-10T00:50:05.104Z,0
2024-04-10T00:51:21.357Z,0
2024-04-10T00:52:37.689Z,0
2024-04-10T00:53:53.983Z,0
2024-04-10T00:55:10.000Z,0
2024-04-10T00:56:26.557Z,0
2024-04-10T00:57:42.000Z,0
2024-04-10T00:58:59.121Z,0
2024-04-10T01:00:15.440Z,0
2024-04-10T01:01:31.736Z,0
2024-04-10T01:02:48.000Z,0
2024-04-10T01:04:04.322Z,0
2024-04-10T01:05:19.000Z,0
2024-04-10T01:06:35.000Z,0
2024-04-10T01:07:52.232Z,0
2024-04-10T01:09:08.517Z,0
2024-04-10T01:10:24.808Z,0
2024-04-10T01:11:41.068Z,0
2024-04-10T01:12:57.000Z,0
2024-04-10T01:14:13.000Z,0
2024-04-10T01:15:29.000Z,0
2024-04-10T01:16:46.279Z,0
2024-04-10T01:18:02.534Z,0
2024-04-10T01:19:18.861Z,0
2024-04-10T01:20:35.148Z,0
2024-04-10T01:21:50.477Z,0
2024-04-10T01:23:06.732Z,0
2024-04-10T01:24:23.060Z,0
2024-04-10T01:25:39.000Z,0
2024-04-10T01:26:55.650Z,0
2024-04-10T01:28:11.000Z,0
2024-04-10T01:29:28.000Z,0
2024-04-10T01:30:44.517Z,0
2024-04-10T01:32:00.824Z,0
2024-04-10T01:33:17.000Z,0
2024-04-10T01:34:33.396Z,0
2024-04-10T01:35:49.000Z,0
2024-04-10T01:37:05.000Z,0
2024-04-10T01:38:21.000Z,0
2024-04-10T01:39:37.591Z,0
2024-04-10T01:40:53.886Z,0
2024-04-10T01:42:10.184Z,0
2024-04-10T01:43:26.474Z,0
2024-04-10T01:44:42.759Z,0
2024-04-10T01:45:59.000Z,0
2024-04-10T01:47:15.342Z,0
2024-04-10T01:48:31.000Z,0
2024-04-10T01:49:47.933Z,0
2024-04-10T01:51:04.188Z,0
2024-04-10T01:52:20.514Z,0
2024-04-10T01:53:36.000Z,0
2024-04-10T01:54:52.127Z,0
2024-04-10T01:56:08.000Z,0
2024-04-10T01:57:24.715Z,0
2024-04-10T01:58:41.001Z,0
2024-04-10T01:59:57.000Z,0
2024-04-10T02:01:13.000Z,0
2024-04-10T02:02:29.889Z,0
2024-04-10T02:03:46.170Z,0
2024-04-10T02:05:02.471Z,0
2024-04-10T02:06:18.771Z,0
2024-04-10T02:07:35.000Z,0
2024-04-10T02:08:51.362Z,0
2024-04-10T02:10:07.620Z,0
2024-04-10T02:11:22.960Z,0
2024-04-10T02:12:39.244Z,0
2024-04-10T02:13:55.500Z,0
2024-04-10T02:15:11.832Z,0
2024-04-10T02:16:28.091Z,0
2024-04-10T02:17:44.422Z,0
2024-04-10T02:19:00.717Z,0
2024-04-10T02:20:17.013Z,0
2024-04-10T02:21:33.000Z,0
2024-04-10T02:22:49.588Z,0
2024-04-10T02:24:05.884Z,0
2024-04-10T02:25:22.179Z,0
2024-04-10T02:26:38.000Z,0
2024-04-10T02:27:53.782Z,0
2024-04-10T02:29:10.054Z,0
2024-04-10T02:30:26.372Z,0
2024-04-10T02:31:42.668Z,0
2024-04-10T02:32:58.963Z,0
2024-04-10T02:34:15.000Z,0
2024-04-10T02:35:31.510Z,0
2024-04-10T02:36:47.831Z,0
2024-04-10T02:38:04.134Z,0
2024-04-10T02:39:20.424Z,0
2024-04-10T02:40:36.000Z,0
2024-04-10T02:41:53.000Z,0
2024-04-10T02:43:09.301Z,0
2024-04-10T02:44:24.000Z,0
2024-04-10T02:45:40.922Z,0
2024-04-10T02:46:57.203Z,0
2024-04-10T02:48:13.491Z,0
2024-04-10T02:49:29.785Z,0
2024-04-10T02:50:46.084Z,0
2024-04-10T02:52:01.000Z,0
2024-04-10T02:53:17.694Z,0
2024-04-10T02:54:33.000Z,0
2024-04-10T02:55:50.294Z,0
2024-04-10T02:57:06.000Z,0
2024-04-10T02:58:22.875Z,0
2024-04-10T02:59:39.116Z,0
2024-04-10T03:00:55.000Z,0
2024-04-10T03:02:11.759Z,0
2024-04-10T03:03:28.043Z,0
2024-04-10T03:04:44.000Z,0
2024-04-10T03:06:00.640Z,0
2024-04-10T03:07:16.000Z,0
2024-04-10T03:08:32.243Z,0
2024-04-10T03:09:48.524Z,0
2024-04-10T03:11:04.831Z,0
2024-04-10T03:12:21.000Z,0
2024-04-10T03:13:37.415Z,0
2024-04-10T03:14:53.000Z,0
2024-04-10T03:16:10.005Z,0
2024-04-10T03:17:26.000Z,0
2024-04-10T03:18:42.580Z,0
2024-04-10T03:19:58.869Z,0
2024-04-10T03:21:15.175Z,0
2024-04-10T03:22:31.000Z,0
2024-04-10T03:23:47.747Z,0
2024-04-10T03:25:03.032Z,0
2024-04-10T03:26:19.369Z,0
2024-04-10T03:27:35.660Z,0
2024-04-10T03:28:51.952Z,0
2024-04-10T03:30:08.251Z,0
2024-04-10T03:31:24.530Z,0
2024-04-10T03:32:40.000Z,0
2024-04-10T03:33:57.116Z,0
2024-04-10T03:35:13.000Z,0
2024-04-10T03:36:29.706Z,0
2024-04-10T03:37:46.000Z,0
2024-04-10T03:39:02.000Z,0
2024-04-10T03:40:18.000Z,0
2024-04-10T03:41:33.897Z,0
2024-04-10T03:42:50.000Z,0
2024-04-10T03:44:06.486Z,0
2024-04-10T03:45:22.000Z,0
2024-04-10T03:46:39.000Z,0
2024-04-10T03:47:55.000Z,0
2024-04-10T03:49:11.000Z,0
2024-04-10T03:50:27.000Z,0
2024-04-10T03:51:44.252Z,0
2024-04-10T03:53:00.544Z,0
2024-04-10T03:54:16.834Z,0
2024-04-10T03:55:33.120Z,0
2024-04-10T03:56:49.413Z,0
2024-04-10T03:58:05.000Z,1
2024-04-10T03:59:22.026Z,1
2024-04-10T04:00:38.000Z,1
2024-04-10T04:01:54.000Z,1
2024-04-10T04:03:10.745Z,2
2024-04-10T04:04:27.012Z,2
2024-04-10T04:05:43.000Z,1
2024-04-10T04:06:59.478Z,1
2024-04-10T04:08:15.000Z,2
2024-04-10T04:09:31.000Z,1
2024-04-10T04:10:48.000Z,4
2024-04-10T04:12:04.429Z,1
2024-04-10T04:13:20.677Z,3
2024-04-10T04:14:35.938Z,5
2024-04-10T04:15:52.183Z,8
2024-04-10T04:17:08.000Z,8
2024-04-10T04:18:24.649Z,12
2024-04-10T04:20:57.000Z,12
2024-04-10T04:22:13.377Z,16
2024-04-10T04:23:29.614Z,19
2024-04-10T04:24:45.843Z,20
2024-04-10T04:26:02.098Z,24
2024-04-10T04:27:18.337Z,22
2024-04-10T04:28:34.000Z,26
2024-04-10T04:29:50.801Z,32
2024-04-10T04:31:06.000Z,36
2024-04-10T04:32:22.000Z,40
2024-04-10T04:33:38.000Z,42
2024-04-10T04:34:54.774Z,43
2024-04-10T04:36:11.029Z,43
2024-04-10T04:37:27.000Z,52
2024-04-10T04:38:43.457Z,54
2024-04-10T04:39:59.744Z,58
2024-04-10T04:41:15.000Z,67
2024-04-10T04:42:32.210Z,72
2024-04-10T04:43:48.000Z,76
2024-04-10T04:45:04.697Z,83
2024-04-10T04:46:20.933Z,89
2024-04-10T04:47:36.192Z,98
2024-04-10T04:48:52.000Z,105
2024-04-10T04:50:08.000Z,111
2024-04-10T04:51:24.863Z,118
2024-04-10T04:52:41.161Z,124
2024-04-10T04:53:57.389Z,133
2024-04-10T04:55:13.621Z,140
2024-04-10T04:56:29.873Z,155
2024-04-10T04:57:46.102Z,164
2024-04-10T04:59:02.000Z,179
2024-04-10T05:00:18.583Z,189
2024-04-10T05:01:34.000Z,209
2024-04-10T05:02:51.000Z,223
2024-04-10T05:04:06.316Z,235
2024-04-10T05:05:22.000Z,241
2024-04-10T05:06:38.803Z,246
2024-04-10T05:07:55.046Z,261
2024-04-10T05:09:11.233Z,275
2024-04-10T05:10:27.000Z,286
2024-04-10T05:11:43.000Z,304
2024-04-10T05:12:59.000Z,317
2024-04-10T05:14:16.000Z,325
2024-04-10T05:15:32.000Z,339
2024-04-10T05:16:48.664Z,359
2024-04-10T05:18:04.967Z,387
2024-04-10T05:19:21.198Z,409
2024-04-10T05:20:36.453Z,426
2024-04-10T05:21:52.702Z,432
2024-04-10T05:23:08.000Z,442
2024-04-10T05:24:25.000Z,444
2024-04-10T05:25:41.000Z,450
2024-04-10T05:26:57.000Z,453
2024-04-10T05:28:13.899Z,456
2024-04-10T05:29:30.139Z,454
2024-04-10T05:30:46.366Z,467
2024-04-10T05:32:02.618Z,469
2024-04-10T05:33:18.000Z,475
2024-04-10T05:34:35.097Z,479
2024-04-10T05:35:51.000Z,474
2024-04-10T05:37:07.000Z,480
2024-04-10T05:38:23.000Z,491
2024-04-10T05:39:40.000Z,505
2024-04-10T05:40:56.406Z,510
2024-04-10T05:42:12.599Z,520
2024-04-10T05:43:28.893Z,536
2024-04-10T05:44:45.000Z,548
2024-04-10T05:46:01.374Z,578
2024-04-10T05:47:17.000Z,608
2024-04-10T05:48:33.000Z,643
2024-04-10T05:49:50.000Z,683
2024-04-10T05:51:06.318Z,722
2024-04-10T05:52:22.566Z,745
2024-04-10T05:53:37.823Z,783
2024-04-10T05:54:54.061Z,800
2024-04-10T05:56:10.000Z,829
2024-04-10T05:57:26.000Z,857
2024-04-10T05:58:42.768Z,898
2024-04-10T05:59:59.000Z,941
2024-04-10T06:01:15.000Z,970
2024-04-10T06:02:31.000Z,1004
2024-04-10T06:03:47.733Z,1030
2024-04-10T06:05:03.918Z,1048
2024-04-10T06:06:20.000Z,1057
2024-04-10T06:07:36.457Z,1077
2024-04-10T06:08:52.000Z,1092
2024-04-10T06:10:07.000Z,1127
2024-04-10T06:11:24.000Z,1156
2024-04-10T06:12:40.000Z,1200
2024-04-10T06:13:56.000Z,1248
2024-04-10T06:15:12.850Z,1306
2024-04-10T06:16:29.145Z,1373
2024-04-10T06:17:45.383Z,1432
2024-04-10T06:19:01.000Z,1489
2024-04-10T06:20:17.817Z,1544
2024-04-10T06:21:34.000Z,1603
2024-04-10T06:22:50.000Z,1655
2024-04-10T06:24:06.000Z,1706
2024-04-10T06:25:22.822Z,1748
2024-04-10T06:26:38.067Z,1777
2024-04-10T06:27:54.306Z,1791
2024-04-10T06:29:10.000Z,1790
2024-04-10T06:30:26.000Z,1779
2024-04-10T06:31:43.000Z,1745
2024-04-10T06:32:59.215Z,1725
2024-04-10T06:34:15.000Z,1701
2024-04-10T06:35:31.000Z,1700
2024-04-10T06:36:47.986Z,1717
2024-04-10T06:38:04.222Z,1718
2024-04-10T06:39:20.000Z,1718
2024-04-10T06:40:36.000Z,1725
2024-04-10T06:41:52.000Z,1717
2024-04-10T06:43:08.000Z,1708
2024-04-10T06:44:24.456Z,1716
2024-04-10T06:45:40.626Z,1736
2024-04-10T06:46:56.925Z,1763
2024-04-10T06:48:13.161Z,1808
2024-04-10T06:49:29.000Z,1853
2024-04-10T06:50:45.000Z,1921
2024-04-10T06:52:01.000Z,1981
2024-04-10T06:53:18.000Z,2050
2024-04-10T06:54:34.000Z,2134
2024-04-10T06:55:50.000Z,2224
2024-04-10T06:57:06.842Z,2311
2024-04-10T06:58:23.087Z,2368
2024-04-10T06:59:38.334Z,2467
2024-04-10T07:00:54.000Z,2567
2024-04-10T07:02:10.000Z,2651
2024-04-10T07:03:27.000Z,2730
2024-04-10T07:04:43.000Z,2775
2024-04-10T07:05:59.000Z,2842
2024-04-10T07:07:14.000Z,2916
2024-04-10T07:08:31.000Z,2968
2024-04-10T07:09:47.283Z,3011
2024-04-10T07:11:03.509Z,3052
2024-04-10T07:12:19.000Z,3081
2024-04-10T07:13:35.000Z,3108
2024-04-10T07:14:52.000Z,3143
2024-04-10T07:16:08.000Z,3161
2024-04-10T07:17:24.000Z,3171
2024-04-10T07:18:40.000Z,3189
2024-04-10T07:19:57.199Z,3164
2024-04-10T07:21:13.427Z,3164
2024-04-10T07:22:29.000Z,3145
2024-04-10T07:23:44.879Z,3150
2024-04-10T07:25:01.000Z,3147
2024-04-10T07:26:17.000Z,3173
2024-04-10T07:27:33.000Z,3210
2024-04-10T07:28:49.000Z,3254
2024-04-10T07:30:06.115Z,3280
2024-04-10T07:31:22.363Z,3271
2024-04-10T07:32:38.606Z,3284
2024-04-10T07:33:54.000Z,3319
2024-04-10T07:35:11.000Z,3353
2024-04-10T07:36:27.382Z,3440
2024-04-10T07:37:43.000Z,3534
2024-04-10T07:38:59.846Z,3610
2024-04-10T07:40:15.000Z,3636
2024-04-10T07:41:31.343Z,3649
2024-04-10T07:42:47.584Z,3647
2024-04-10T07:44:03.000Z,3665
2024-04-10T07:45:20.000Z,3651
2024-04-10T07:46:36.000Z,3654
2024-04-10T07:47:52.541Z,3638
2024-04-10T07:49:08.790Z,3705
2024-04-10T07:50:25.000Z,3792
2024-04-10T07:51:41.258Z,3877
2024-04-10T07:52:57.514Z,3927
2024-04-10T07:54:13.751Z,3956
2024-04-10T07:55:29.990Z,3940
2024-04-10T07:56:46.000Z,3886
2024-04-10T07:58:02.000Z,3852
2024-04-10T07:59:18.825Z,3794
2024-04-10T08:00:35.000Z,3734
2024-04-10T08:01:51.000Z,3862
2024-04-10T08:03:07.542Z,3850
2024-04-10T08:04:23.785Z,3849
2024-04-10T08:05:40.030Z,3816
2024-04-10T08:06:56.267Z,3694
2024-04-10T08:08:12.491Z,3693
2024-04-10T08:09:28.742Z,3714
2024-04-10T08:10:44.988Z,3701
2024-04-10T08:12:01.000Z,3610
2024-04-10T08:13:16.000Z,3557
2024-04-10T08:14:32.709Z,3549
2024-04-10T08:15:48.961Z,3476
2024-04-10T08:17:05.000Z,3431
2024-04-10T08:18:21.377Z,3459
2024-04-10T08:19:37.681Z,3452
2024-04-10T08:20:53.915Z,3653
2024-04-10T08:22:10.000Z,3144
2024-04-10T08:23:26.000Z,3429
2024-04-10T08:24:42.000Z,3123
2024-04-10T08:25:58.000Z,3454
2024-04-10T08:27:15.000Z,2987
2024-04-10T08:28:31.344Z,3007
2024-04-10T08:29:46.601Z,3824
2024-04-10T08:31:02.849Z,3644
2024-04-10T08:32:19.000Z,3903
2024-04-10T08:33:35.000Z,4153
2024-04-10T08:34:51.000Z,3767
2024-04-10T08:36:07.000Z,3608
2024-04-10T08:37:24.000Z,3873
2024-04-10T08:38:40.276Z,3823
2024-04-10T08:39:56.514Z,3531
2024-04-10T08:41:12.758Z,3814
2024-04-10T08:42:28.000Z,4185
2024-04-10T08:43:45.184Z,4134
2024-04-10T08:45:01.000Z,4281
2024-04-10T08:46:16.741Z,4248
2024-04-10T08:47:32.000Z,4405
2024-04-10T08:48:49.000Z,4481
2024-04-10T08:50:05.000Z,4271
2024-04-10T08:51:21.683Z,4338
2024-04-10T08:52:37.866Z,4659
2024-04-10T08:53:54.000Z,4778
2024-04-10T08:55:10.000Z,4715
2024-04-10T08:56:26.000Z,4821
2024-04-10T08:57:42.000Z,4801
2024-04-10T08:58:59.134Z,4894
2024-04-10T09:00:15.000Z,4964
2024-04-10T09:01:31.596Z,5141
2024-04-10T09:02:46.861Z,4670
2024-04-10T09:04:03.102Z,4662
2024-04-10T09:05:19.000Z,4728
2024-04-10T09:06:35.579Z,4834
2024-04-10T09:07:51.000Z,4871
2024-04-10T09:10:24.302Z,5022
2024-04-10T09:11:40.535Z,4951
2024-04-10T09:12:56.765Z,4802
2024-04-10T09:14:13.005Z,4831
2024-04-10T09:15:29.193Z,4918
2024-04-10T09:16:45.501Z,4650
2024-04-10T09:18:01.729Z,4441
2024-04-10T09:19:16.979Z,4300
2024-04-10T09:20:33.000Z,4346
2024-04-10T09:21:49.469Z,4368
2024-04-10T09:23:05.000Z,4700
2024-04-10T09:24:21.941Z,4613
2024-04-10T09:25:38.127Z,4722
2024-04-10T09:26:54.000Z,5267
2024-04-10T09:28:10.000Z,5427
2024-04-10T09:29:26.000Z,5682
2024-04-10T09:30:43.078Z,5405
2024-04-10T09:31:59.388Z,4974
2024-04-10T09:33:15.000Z,4740
2024-04-10T09:34:31.863Z,4003
2024-04-10T09:35:47.115Z,5138
2024-04-10T09:37:03.343Z,5063
2024-04-10T09:38:19.000Z,5103
2024-04-10T09:39:35.000Z,4987
2024-04-10T09:40:52.000Z,4610
2024-04-10T09:42:08.312Z,4821
2024-04-10T09:43:24.546Z,4827
2024-04-10T09:44:40.000Z,5087
2024-04-10T09:45:57.000Z,5121
2024-04-10T09:47:13.000Z,5354
2024-04-10T09:48:29.496Z,4431
2024-04-10T09:49:45.738Z,4143
2024-04-10T09:51:01.000Z,4083
2024-04-10T09:52:18.221Z,4290
2024-04-10T09:53:33.000Z,4492
2024-04-10T09:54:49.000Z,4332
2024-04-10T09:56:05.960Z,4214
2024-04-10T09:57:22.191Z,4209
2024-04-10T09:58:38.446Z,4287
2024-04-10T09:59:54.669Z,4521
2024-04-10T10:01:10.906Z,4935
2024-04-10T10:02:27.143Z,5587
2024-04-10T10:03:43.000Z,4652
2024-04-10T10:04:59.634Z,4087
2024-04-10T10:06:15.000Z,5090
2024-04-10T10:07:32.000Z,5027
2024-04-10T10:08:48.283Z,4792
2024-04-10T10:10:03.615Z,5477
2024-04-10T10:11:19.845Z,5634
2024-04-10T10:12:36.018Z,5518
2024-04-10T10:13:52.000Z,4873
2024-04-10T10:15:08.000Z,4950
2024-04-10T10:16:24.000Z,4619
2024-04-10T10:17:41.000Z,4899
2024-04-10T10:18:57.289Z,4858
2024-04-10T10:20:13.000Z,5155
2024-04-10T10:21:29.754Z,5048
2024-04-10T10:22:46.005Z,4785
2024-04-10T10:24:02.000Z,4794
2024-04-10T10:25:18.479Z,4781
2024-04-10T10:26:33.000Z,5321
2024-04-10T10:27:49.000Z,5370
2024-04-10T10:29:06.000Z,4710
2024-04-10T10:30:22.000Z,5243
2024-04-10T10:31:38.000Z,5760
2024-04-10T10:32:54.938Z,6012
2024-04-10T10:34:11.173Z,5486
2024-04-10T10:35:27.000Z,5380
2024-04-10T10:36:43.000Z,5361
2024-04-10T10:37:59.000Z,5360
2024-04-10T10:39:16.000Z,5044
2024-04-10T10:40:32.000Z,5044
2024-04-10T10:41:48.000Z,5472
2024-04-10T10:43:03.000Z,5737
2024-04-10T10:44:20.119Z,5616
2024-04-10T10:45:36.350Z,5384
2024-04-10T10:46:52.585Z,4707
2024-04-10T10:48:08.000Z,4924
2024-04-10T10:49:25.075Z,5545
2024-04-10T10:50:41.000Z,5686
2024-04-10T10:51:57.000Z,5875
2024-04-10T10:53:13.000Z,5775
2024-04-10T10:54:30.000Z,5667
2024-04-10T10:55:46.276Z,5795
2024-04-10T10:57:02.000Z,5791
2024-04-10T10:58:18.000Z,5933
2024-04-10T10:59:35.119Z,6331
2024-04-10T11:00:51.000Z,5909
2024-04-10T11:02:07.000Z,5828
2024-04-10T11:03:23.000Z,5732
2024-04-10T11:04:40.000Z,5919
2024-04-10T11:05:56.246Z,5782
2024-04-10T11:07:12.000Z,6126
2024-04-10T11:08:28.788Z,5967
2024-04-10T11:09:45.020Z,5943
2024-04-10T11:11:01.273Z,6122
2024-04-10T11:12:17.509Z,5908
2024-04-10T11:13:33.737Z,6012
2024-04-10T11:14:49.000Z,5923
2024-04-10T11:16:05.000Z,5795
2024-04-10T11:17:21.485Z,5478
2024-04-10T11:18:37.725Z,5770
2024-04-10T11:19:53.954Z,5547
2024-04-10T11:21:10.000Z,5063
2024-04-10T11:22:25.460Z,4593
2024-04-10T11:23:41.000Z,4156
2024-04-10T11:24:57.000Z,3843
2024-04-10T11:26:14.175Z,3398
2024-04-10T11:27:30.000Z,3359
2024-04-10T11:28:46.654Z,3911
2024-04-10T11:30:02.901Z,4167
2024-04-10T11:31:19.000Z,4939
2024-04-10T11:32:35.000Z,5259
2024-04-10T11:33:51.000Z,5046
2024-04-10T11:35:07.852Z,5060
2024-04-10T11:36:24.000Z,4895
2024-04-10T11:37:40.330Z,4715
2024-04-10T11:38:55.000Z,3951
2024-04-10T11:40:11.833Z,3557
2024-04-10T11:41:28.076Z,3396
2024-04-10T11:42:44.000Z,3468
2024-04-10T11:44:00.000Z,3839
2024-04-10T11:45:16.000Z,4257
2024-04-10T11:46:33.000Z,4592
2024-04-10T11:47:49.000Z,5158
2024-04-10T11:49:05.000Z,5243
2024-04-10T11:50:21.732Z,4733
2024-04-10T11:51:37.984Z,4293
2024-04-10T11:52:54.000Z,4759
2024-04-10T11:54:10.456Z,5442
2024-04-10T11:55:25.723Z,5836
2024-04-10T11:56:41.000Z,6044
2024-04-10T11:57:58.000Z,6184
2024-04-10T11:59:14.425Z,6146
2024-04-10T12:00:30.000Z,4778
2024-04-10T12:01:46.000Z,5288
2024-04-10T12:03:03.160Z,6049
2024-04-10T12:04:19.396Z,5689
2024-04-10T12:05:35.643Z,5517
2024-04-10T12:06:51.882Z,4745
2024-04-10T12:08:08.000Z,4758
2024-04-10T12:09:24.000Z,5284
2024-04-10T12:10:40.000Z,5441
2024-04-10T12:11:55.000Z,5460
2024-04-10T12:13:12.000Z,5511
2024-04-10T12:14:28.338Z,5787
2024-04-10T12:15:44.571Z,4951
2024-04-10T12:17:00.799Z,5187
2024-04-10T12:18:17.000Z,5525
2024-04-10T12:19:33.000Z,5666
2024-04-10T12:20:49.000Z,5104
2024-04-10T12:22:05.000Z,5962
2024-04-10T12:23:22.010Z,4989
2024-04-10T12:24:38.000Z,4589
2024-04-10T12:25:54.494Z,4479
2024-04-10T12:27:10.731Z,4166
2024-04-10T12:28:25.990Z,3419
2024-04-10T12:29:42.000Z,4893
2024-04-10T12:30:58.000Z,4158
2024-04-10T12:32:14.000Z,4064
2024-04-10T12:33:30.000Z,3805
2024-04-10T12:34:47.177Z,3452
2024-04-10T12:36:03.416Z,3015
2024-04-10T12:37:19.657Z,2770
2024-04-10T12:38:35.817Z,2607
2024-04-10T12:39:52.000Z,2509
2024-04-10T12:41:08.363Z,2406
2024-04-10T12:42:24.000Z,2487
2024-04-10T12:43:40.000Z,2505
2024-04-10T12:44:56.107Z,2529
2024-04-10T12:46:12.000Z,2527
2024-04-10T12:47:28.000Z,2553
2024-04-10T12:48:44.753Z,2666
2024-04-10T12:50:01.070Z,2828
2024-04-10T12:51:17.000Z,2943
2024-04-10T12:52:33.000Z,3024
2024-04-10T12:53:49.782Z,3142
2024-04-10T12:55:06.000Z,3414
2024-04-10T12:56:22.000Z,3816
2024-04-10T12:57:38.513Z,4099
2024-04-10T12:58:54.733Z,4396
2024-04-10T13:00:10.991Z,4914
2024-04-10T13:01:27.000Z,5545
2024-04-10T13:02:42.000Z,5812
2024-04-10T13:03:58.642Z,5785
2024-04-10T13:05:14.000Z,5738
2024-04-10T13:07:47.432Z,6191
2024-04-10T13:09:03.000Z,6390
2024-04-10T13:10:19.914Z,6490
2024-04-10T13:11:36.163Z,6348
2024-04-10T13:12:52.000Z,5909
2024-04-10T13:14:08.000Z,5471
2024-04-10T13:15:24.000Z,5130
2024-04-10T13:16:41.000Z,5645
2024-04-10T13:17:57.000Z,5255
2024-04-10T13:19:13.707Z,5636
2024-04-10T13:20:29.000Z,5472
2024-04-10T13:21:46.194Z,5657
2024-04-10T13:23:02.442Z,5763
2024-04-10T13:24:18.000Z,5964
2024-04-10T13:25:34.000Z,6037
2024-04-10T13:26:51.000Z,5953
2024-04-10T13:28:07.000Z,5757
2024-04-10T13:29:23.000Z,5614
2024-04-10T13:30:39.804Z,5262
2024-04-10T13:31:56.112Z,5738
2024-04-10T13:33:12.358Z,5788
2024-04-10T13:34:28.000Z,5890
2024-04-10T13:35:43.000Z,6035
2024-04-10T13:37:00.080Z,6062
2024-04-10T13:38:16.000Z,6158
2024-04-10T13:39:32.000Z,6285
2024-04-10T13:40:48.000Z,5964
2024-04-10T13:42:05.048Z,6080
2024-04-10T13:43:21.273Z,6060
2024-04-10T13:44:37.528Z,6245
2024-04-10T13:45:53.000Z,6865
2024-04-10T13:47:09.000Z,6845
2024-04-10T13:48:26.000Z,7399
2024-04-10T13:49:42.000Z,6970
2024-04-10T13:50:58.705Z,6657
2024-04-10T13:52:13.000Z,6514
2024-04-10T13:53:30.219Z,6082
2024-04-10T13:54:46.368Z,6589
2024-04-10T13:56:02.696Z,5742
2024-04-10T13:57:18.921Z,5996
2024-04-10T13:58:35.163Z,5451
2024-04-10T13:59:51.000Z,5306
2024-04-10T14:01:07.649Z,4854
2024-04-10T14:02:23.000Z,4222
2024-04-10T14:03:40.000Z,4290
2024-04-10T14:04:56.282Z,4408
2024-04-10T14:06:12.607Z,3857
2024-04-10T14:07:28.000Z,3951
2024-04-10T14:08:44.103Z,3824
2024-04-10T14:10:00.325Z,3515
2024-04-10T14:11:16.576Z,3538
2024-04-10T14:12:32.000Z,3773
2024-04-10T14:13:49.053Z,3792
2024-04-10T14:15:05.287Z,3668
2024-04-10T14:16:21.531Z,3643
2024-04-10T14:17:37.760Z,3783
2024-04-10T14:18:54.000Z,4160
2024-04-10T14:20:10.000Z,4187
2024-04-10T14:21:26.477Z,4199
2024-04-10T14:22:42.728Z,4667
2024-04-10T14:23:58.960Z,4675
2024-04-10T14:25:14.209Z,4229
2024-04-10T14:26:30.455Z,4110
2024-04-10T14:27:46.697Z,4012
2024-04-10T14:29:02.924Z,3886
2024-04-10T14:30:19.000Z,3952
2024-04-10T14:31:35.404Z,3949
2024-04-10T14:32:51.000Z,3854
2024-04-10T14:34:07.893Z,4037
2024-04-10T14:35:24.129Z,4043
2024-04-10T14:36:40.366Z,4002
2024-04-10T14:37:56.592Z,4091
2024-04-10T14:39:12.844Z,4129
2024-04-10T14:40:29.078Z,4063
2024-04-10T14:41:44.347Z,3764
2024-04-10T14:43:00.000Z,3578
2024-04-10T14:44:16.819Z,3358
2024-04-10T14:45:33.000Z,3243
2024-04-10T14:46:49.284Z,3196
2024-04-10T14:48:05.521Z,3232
2024-04-10T14:49:21.770Z,3273
2024-04-10T14:50:38.006Z,3525
2024-04-10T14:51:54.250Z,3662
2024-04-10T14:53:10.496Z,3551
2024-04-10T14:54:26.718Z,4653
2024-04-10T14:55:42.000Z,4001
2024-04-10T14:56:59.000Z,3800
2024-04-10T14:58:14.000Z,3642
2024-04-10T15:00:46.899Z,3124
2024-04-10T15:02:03.127Z,3205
2024-04-10T15:03:19.000Z,3405
2024-04-10T15:04:35.618Z,3646
2024-04-10T15:05:51.000Z,3698
2024-04-10T15:07:08.084Z,3569
2024-04-10T15:08:24.000Z,3262
2024-04-10T15:09:40.570Z,3168
2024-04-10T15:10:56.801Z,3254
2024-04-10T15:12:13.052Z,3599
2024-04-10T15:13:29.276Z,3978
2024-04-10T15:14:44.544Z,4364
2024-04-10T15:16:00.000Z,4759
2024-04-10T15:17:17.023Z,4774
2024-04-10T15:18:33.251Z,4789
2024-04-10T15:19:49.490Z,4134
2024-04-10T15:21:05.729Z,3799
2024-04-10T15:22:21.985Z,4645
2024-04-10T15:23:38.000Z,3555
2024-04-10T15:24:54.447Z,3452
2024-04-10T15:26:10.688Z,3518
2024-04-10T15:27:26.000Z,3447
2024-04-10T15:28:43.000Z,3289
2024-04-10T15:29:59.405Z,3259
2024-04-10T15:31:14.648Z,3346
2024-04-10T15:32:30.917Z,3299
2024-04-10T15:33:47.142Z,3077
2024-04-10T15:35:03.000Z,3158
2024-04-10T15:36:19.000Z,3455
2024-04-10T15:37:34.879Z,3732
2024-04-10T15:38:51.109Z,3699
2024-04-10T15:40:07.364Z,3647
2024-04-10T15:41:23.591Z,3820
2024-04-10T15:42:39.850Z,3931
2024-04-10T15:43:56.091Z,3949
2024-04-10T15:45:12.324Z,3700
2024-04-10T15:46:28.554Z,3291
2024-04-10T15:47:44.798Z,3121
2024-04-10T15:49:01.000Z,2896
2024-04-10T15:51:33.491Z,2425
2024-04-10T15:52:49.759Z,2374
2024-04-10T15:54:05.008Z,2547
2024-04-10T15:55:21.243Z,2388
2024-04-10T15:56:37.470Z,3531
2024-04-10T15:57:53.734Z,2776
2024-04-10T15:59:09.950Z,3099
2024-04-10T16:00:26.203Z,3282
2024-04-10T16:01:42.420Z,4519
2024-04-10T16:02:58.685Z,3800
2024-04-10T16:04:14.921Z,3716
2024-04-10T16:05:31.159Z,3377
2024-04-10T16:06:47.000Z,3075
2024-04-10T16:08:03.630Z,2882
2024-04-10T16:09:19.873Z,2753
2024-04-10T16:10:35.131Z,2664
2024-04-10T16:11:51.356Z,2602
2024-04-10T16:13:07.609Z,2600
2024-04-10T16:14:23.845Z,2818
2024-04-10T16:15:40.099Z,2619
2024-04-10T16:16:56.341Z,2660
2024-04-10T16:18:12.574Z,3046
2024-04-10T16:19:28.812Z,3278
2024-04-10T16:20:45.045Z,3198
2024-04-10T16:22:01.000Z,3474
2024-04-10T16:23:17.519Z,3172
2024-04-10T16:24:33.000Z,4110
2024-04-10T16:25:50.008Z,5188
2024-04-10T16:27:05.263Z,5635
2024-04-10T16:28:21.502Z,5374
2024-04-10T16:29:37.732Z,5370
2024-04-10T16:30:53.990Z,6382
2024-04-10T16:32:10.228Z,6372
2024-04-10T16:33:26.463Z,5155
2024-04-10T16:34:42.000Z,4675
2024-04-10T16:35:58.937Z,4556
2024-04-10T16:37:15.155Z,4499
2024-04-10T16:38:31.424Z,4354
2024-04-10T16:39:47.000Z,2697
2024-04-10T16:41:03.894Z,3986
2024-04-10T16:42:20.119Z,4293
2024-04-10T16:43:35.000Z,4302
2024-04-10T16:44:51.000Z,4279
2024-04-10T16:46:07.870Z,4025
2024-04-10T16:47:24.097Z,2016
2024-04-10T16:48:40.351Z,3502
2024-04-10T16:49:56.557Z,7585
2024-04-10T16:51:12.813Z,14553
2024-04-10T16:52:29.000Z,17213
2024-04-10T16:53:45.301Z,12883
2024-04-10T16:55:01.523Z,11592
2024-04-10T16:56:17.782Z,15534
2024-04-10T16:57:33.999Z,13552
2024-04-10T16:58:50.248Z,9183
2024-04-10T17:00:05.503Z,8392
2024-04-10T17:01:21.740Z,10165
2024-04-10T17:02:37.981Z,10436
2024-04-10T17:03:54.238Z,11217
2024-04-10T17:05:10.000Z,8690
2024-04-10T17:06:26.711Z,5485
2024-04-10T17:07:42.935Z,7838
2024-04-10T17:08:59.187Z,7834
2024-04-10T17:10:15.421Z,4943
2024-04-10T17:11:31.673Z,5112
2024-04-10T17:12:47.897Z,6257
2024-04-10T17:14:04.000Z,4369
2024-04-10T17:15:20.364Z,4268
2024-04-10T17:16:35.000Z,6494
2024-04-10T17:17:51.000Z,9425
2024-04-10T17:19:08.115Z,1766
2024-04-10T17:20:24.357Z,3259
2024-04-10T17:21:40.596Z,3869
2024-04-10T17:22:56.826Z,3707
2024-04-10T17:24:13.079Z,3547
2024-04-10T17:25:29.000Z,9204
2024-04-10T17:26:45.000Z,2238
2024-04-10T17:28:01.000Z,2782
2024-04-10T17:29:18.000Z,3238